Jacobs, Kentucky
Current Conditions -  °F | °C
As of 8:10 AM on Sunday 23 Nov 2014 (Local Time) from KSYM Reporting Station
Broken Clouds Broken Clouds  
Wind Chill: 52°   Ceiling: 11000
Heat Index: 52°   Visibility: 10mi
Dew Point: 34°   Wind: 7mph
Humidity: 50%   Direction: 150°SSE
Pressure: 30.04"   Gusts: NA
Location:  38.23°N, 83.24°W
Report Text: KSYM 231310Z AUTO 15006KT 10SM SCT049 SCT055 BKN110 11/01 A3004 RMK AO2
Loading
Personal Weather Stations






























Interactive Weather Map New forecast layout! Learn more

10-Day Weather Forecast

Advertisements
Track Severe Weather on mobile